sensor_id;sensor_type;location;lat;lon;timestamp;pressure;altitude;pressure_sealevel;temperature;humidity
4745;BME280;2386;42.138;24.746;2022-11-15T00:00:20;100349.56;;;8.68;100.00
4745;BME280;2386;42.138;24.746;2022-11-15T00:02:46;100342.72;;;8.72;100.00
4745;BME280;2386;42.138;24.746;2022-11-15T00:05:11;100342.13;;;8.76;100.00
4745;BME280;2386;42.138;24.746;2022-11-15T00:07:37;100347.41;;;9.04;100.00
4745;BME280;2386;42.138;24.746;2022-11-15T00:10:03;100348.22;;;8.98;100.00
4745;BME280;2386;42.138;24.746;2022-11-15T00:12:28;100348.88;;;9.07;100.00
4745;BME280;2386;42.138;24.746;2022-11-15T00:14:54;100349.91;;;8.99;100.00
4745;BME280;2386;42.138;24.746;2022-11-15T00:17:19;100353.63;;;8.98;100.00
4745;BME280;2386;42.138;24.746;2022-11-15T00:19:44;100342.81;;;8.98;100.00
4745;BME280;2386;42.138;24.746;2022-11-15T00:22:10;100333.25;;;9.02;100.00
4745;BME280;2386;42.138;24.746;2022-11-15T00:24:36;100355.34;;;9.12;100.00
4745;BME280;2386;42.138;24.746;2022-11-15T00:27:01;100361.00;;;9.17;100.00
4745;BME280;2386;42.138;24.746;2022-11-15T00:29:26;100353.91;;;9.16;100.00
4745;BME280;2386;42.138;24.746;2022-11-15T00:31:52;100351.63;;;9.13;100.00
4745;BME280;2386;42.138;24.746;2022-11-15T00:34:17;100341.56;;;8.94;100.00
4745;BME280;2386;42.138;24.746;2022-11-15T00:36:43;100357.47;;;9.17;100.00
4745;BME280;2386;42.138;24.746;2022-11-15T00:39:08;100329.94;;;9.07;100.00
4745;BME280;2386;42.138;24.746;2022-11-15T00:41:33;100345.38;;;9.19;100.00
4745;BME280;2386;42.138;24.746;2022-11-15T00:43:59;100336.81;;;9.09;100.00
4745;BME280;2386;42.138;24.746;2022-11-15T00:46:24;100334.75;;;9.18;100.00
4745;BME280;2386;42.138;24.746;2022-11-15T00:48:50;100329.38;;;9.25;100.00
4745;BME280;2386;42.138;24.746;2022-11-15T00:51:15;100336.22;;;9.20;100.00
4745;BME280;2386;42.138;24.746;2022-11-15T00:53:40;100326.59;;;8.98;100.00
4745;BME280;2386;42.138;24.746;2022-11-15T00:56:06;100330.38;;;9.10;100.00
4745;BME280;2386;42.138;24.746;2022-11-15T00:58:31;100340.38;;;9.16;100.00
4745;BME280;2386;42.138;24.746;2022-11-15T01:01:09;100322.63;;;9.01;100.00
4745;BME280;2386;42.138;24.746;2022-11-15T01:03:35;100339.31;;;9.04;100.00
4745;BME280;2386;42.138;24.746;2022-11-15T01:06:01;100335.59;;;9.12;100.00
4745;BME280;2386;42.138;24.746;2022-11-15T01:08:26;100331.84;;;9.19;100.00
4745;BME280;2386;42.138;24.746;2022-11-15T01:10:52;100324.56;;;9.13;100.00
4745;BME280;2386;42.138;24.746;2022-11-15T01:13:17;100334.19;;;9.29;100.00
4745;BME280;2386;42.138;24.746;2022-11-15T01:15:43;100327.69;;;9.23;100.00
4745;BME280;2386;42.138;24.746;2022-11-15T01:18:09;100336.06;;;9.35;100.00
4745;BME280;2386;42.138;24.746;2022-11-15T01:20:38;100319.59;;;9.23;100.00
4745;BME280;2386;42.138;24.746;2022-11-15T01:23:03;100317.94;;;9.29;100.00
4745;BME280;2386;42.138;24.746;2022-11-15T01:25:29;100312.13;;;9.45;100.00
4745;BME280;2386;42.138;24.746;2022-11-15T01:27:54;100314.16;;;9.23;100.00
4745;BME280;2386;42.138;24.746;2022-11-15T01:30:20;100310.19;;;9.19;100.00
4745;BME280;2386;42.138;24.746;2022-11-15T01:32:45;100314.56;;;9.20;100.00
4745;BME280;2386;42.138;24.746;2022-11-15T01:35:10;100321.66;;;9.21;100.00
4745;BME280;2386;42.138;24.746;2022-11-15T01:37:36;100325.41;;;9.20;100.00
4745;BME280;2386;42.138;24.746;2022-11-15T01:40:01;100315.63;;;9.19;100.00
4745;BME280;2386;42.138;24.746;2022-11-15T01:42:26;100309.16;;;9.20;100.00
4745;BME280;2386;42.138;24.746;2022-11-15T01:44:52;100314.97;;;9.11;100.00
4745;BME280;2386;42.138;24.746;2022-11-15T01:47:32;100311.69;;;9.29;100.00
4745;BME280;2386;42.138;24.746;2022-11-15T01:50:08;100303.78;;;9.34;100.00
4745;BME280;2386;42.138;24.746;2022-11-15T01:52:35;100291.69;;;9.23;100.00
4745;BME280;2386;42.138;24.746;2022-11-15T01:55:18;100295.41;;;9.15;100.00
4745;BME280;2386;42.138;24.746;2022-11-15T01:57:47;100304.59;;;9.21;100.00
4745;BME280;2386;42.138;24.746;2022-11-15T02:00:14;100316.06;;;9.30;100.00
4745;BME280;2386;42.138;24.746;2022-11-15T02:02:40;100307.06;;;9.16;100.00
4745;BME280;2386;42.138;24.746;2022-11-15T02:05:06;100308.34;;;9.20;100.00
4745;BME280;2386;42.138;24.746;2022-11-15T02:07:32;100312.28;;;9.24;100.00
4745;BME280;2386;42.138;24.746;2022-11-15T02:10:04;100315.41;;;9.21;100.00
4745;BME280;2386;42.138;24.746;2022-11-15T02:12:32;100300.41;;;9.12;100.00
4745;BME280;2386;42.138;24.746;2022-11-15T02:14:57;100300.00;;;9.15;100.00
4745;BME280;2386;42.138;24.746;2022-11-15T02:17:32;100306.91;;;9.37;100.00
4745;BME280;2386;42.138;24.746;2022-11-15T02:31:02;100303.34;;;9.30;100.00
4745;BME280;2386;42.138;24.746;2022-11-15T02:33:38;100306.47;;;9.27;100.00
4745;BME280;2386;42.138;24.746;2022-11-15T02:36:13;100287.13;;;9.37;100.00
4745;BME280;2386;42.138;24.746;2022-11-15T02:38:47;100300.06;;;9.48;100.00
4745;BME280;2386;42.138;24.746;2022-11-15T02:44:07;100298.59;;;9.45;100.00
4745;BME280;2386;42.138;24.746;2022-11-15T02:46:59;100299.00;;;9.49;100.00
4745;BME280;2386;42.138;24.746;2022-11-15T02:49:39;100296.94;;;9.51;100.00
4745;BME280;2386;42.138;24.746;2022-11-15T02:52:06;100292.34;;;9.38;100.00
4745;BME280;2386;42.138;24.746;2022-11-15T02:54:33;100295.66;;;9.27;100.00
4745;BME280;2386;42.138;24.746;2022-11-15T02:57:19;100298.75;;;9.17;100.00
4745;BME280;2386;42.138;24.746;2022-11-15T03:02:24;100285.19;;;9.04;100.00
4745;BME280;2386;42.138;24.746;2022-11-15T03:10:42;100292.31;;;9.32;100.00
4745;BME280;2386;42.138;24.746;2022-11-15T03:13:27;100287.53;;;9.34;100.00
4745;BME280;2386;42.138;24.746;2022-11-15T03:21:50;100283.75;;;9.21;100.00
4745;BME280;2386;42.138;24.746;2022-11-15T03:24:17;100284.59;;;9.29;100.00
4745;BME280;2386;42.138;24.746;2022-11-15T03:26:45;100290.88;;;9.36;100.00
4745;BME280;2386;42.138;24.746;2022-11-15T03:29:16;100294.41;;;9.30;100.00
4745;BME280;2386;42.138;24.746;2022-11-15T03:31:47;100296.72;;;9.46;100.00
4745;BME280;2386;42.138;24.746;2022-11-15T03:36:45;100278.59;;;9.60;100.00
4745;BME280;2386;42.138;24.746;2022-11-15T03:39:12;100268.38;;;9.48;100.00
4745;BME280;2386;42.138;24.746;2022-11-15T03:47:34;100270.06;;;9.56;100.00
4745;BME280;2386;42.138;24.746;2022-11-15T03:50:09;100265.25;;;9.45;100.00
4745;BME280;2386;42.138;24.746;2022-11-15T03:52:36;100263.59;;;9.64;100.00
4745;BME280;2386;42.138;24.746;2022-11-15T03:55:04;100260.06;;;9.63;100.00
4745;BME280;2386;42.138;24.746;2022-11-15T03:57:30;100250.66;;;9.72;100.00
4745;BME280;2386;42.138;24.746;2022-11-15T03:59:55;100256.31;;;9.44;100.00
4745;BME280;2386;42.138;24.746;2022-11-15T04:02:21;100250.25;;;9.29;100.00
4745;BME280;2386;42.138;24.746;2022-11-15T04:04:46;100245.47;;;9.44;100.00
4745;BME280;2386;42.138;24.746;2022-11-15T04:07:19;100254.22;;;9.27;100.00
4745;BME280;2386;42.138;24.746;2022-11-15T04:09:45;100237.53;;;9.23;100.00
4745;BME280;2386;42.138;24.746;2022-11-15T04:12:49;100246.53;;;9.57;100.00
4745;BME280;2386;42.138;24.746;2022-11-15T04:15:19;100252.09;;;9.75;100.00
4745;BME280;2386;42.138;24.746;2022-11-15T04:20:22;100242.53;;;9.66;100.00
4745;BME280;2386;42.138;24.746;2022-11-15T04:23:13;100232.16;;;9.63;100.00
4745;BME280;2386;42.138;24.746;2022-11-15T04:26:12;100232.16;;;9.56;100.00
4745;BME280;2386;42.138;24.746;2022-11-15T04:28:39;100226.53;;;9.38;100.00
4745;BME280;2386;42.138;24.746;2022-11-15T04:31:24;100233.38;;;9.27;100.00
4745;BME280;2386;42.138;24.746;2022-11-15T04:33:50;100231.28;;;9.22;100.00
4745;BME280;2386;42.138;24.746;2022-11-15T04:36:15;100226.28;;;9.19;100.00
4745;BME280;2386;42.138;24.746;2022-11-15T04:38:59;100237.34;;;9.25;100.00
4745;BME280;2386;42.138;24.746;2022-11-15T04:41:25;100244.19;;;9.14;100.00
4745;BME280;2386;42.138;24.746;2022-11-15T04:43:50;100231.50;;;9.34;100.00
4745;BME280;2386;42.138;24.746;2022-11-15T04:46:16;100235.88;;;9.22;100.00
4745;BME280;2386;42.138;24.746;2022-11-15T04:48:41;100226.28;;;9.19;100.00
4745;BME280;2386;42.138;24.746;2022-11-15T04:51:07;100233.78;;;9.17;100.00
4745;BME280;2386;42.138;24.746;2022-11-15T04:53:32;100234.59;;;9.05;100.00
4745;BME280;2386;42.138;24.746;2022-11-15T04:55:57;100234.19;;;9.14;100.00
4745;BME280;2386;42.138;24.746;2022-11-15T04:58:23;100229.59;;;9.02;100.00
4745;BME280;2386;42.138;24.746;2022-11-15T05:00:48;100231.72;;;9.19;100.00
4745;BME280;2386;42.138;24.746;2022-11-15T05:03:14;100226.91;;;9.15;100.00
4745;BME280;2386;42.138;24.746;2022-11-15T05:05:58;100229.63;;;9.08;100.00
4745;BME280;2386;42.138;24.746;2022-11-15T05:08:24;100228.78;;;9.14;100.00
4745;BME280;2386;42.138;24.746;2022-11-15T05:10:49;100218.81;;;9.21;100.00
4745;BME280;2386;42.138;24.746;2022-11-15T05:13:15;100224.66;;;9.38;100.00
4745;BME280;2386;42.138;24.746;2022-11-15T05:15:40;100235.91;;;9.42;100.00
4745;BME280;2386;42.138;24.746;2022-11-15T05:18:43;100235.91;;;9.42;100.00
4745;BME280;2386;42.138;24.746;2022-11-15T05:21:13;100236.09;;;9.34;100.00
4745;BME280;2386;42.138;24.746;2022-11-15T05:23:40;100234.44;;;9.46;100.00
4745;BME280;2386;42.138;24.746;2022-11-15T05:26:07;100220.03;;;9.12;100.00
4745;BME280;2386;42.138;24.746;2022-11-15T05:28:33;100224.63;;;9.18;100.00
4745;BME280;2386;42.138;24.746;2022-11-15T05:31:09;100233.16;;;9.15;100.00
4745;BME280;2386;42.138;24.746;2022-11-15T05:33:36;100233.78;;;9.04;100.00
4745;BME280;2386;42.138;24.746;2022-11-15T05:36:07;100229.16;;;8.92;100.00
4745;BME280;2386;42.138;24.746;2022-11-15T05:38:34;100231.88;;;8.85;100.00
4745;BME280;2386;42.138;24.746;2022-11-15T05:41:00;100232.50;;;9.00;100.00
4745;BME280;2386;42.138;24.746;2022-11-15T05:43:27;100243.16;;;9.21;100.00
4745;BME280;2386;42.138;24.746;2022-11-15T05:45:53;100230.88;;;9.26;100.00
4745;BME280;2386;42.138;24.746;2022-11-15T05:48:19;100232.34;;;9.35;100.00
4745;BME280;2386;42.138;24.746;2022-11-15T05:50:46;100242.97;;;9.43;100.00
4745;BME280;2386;42.138;24.746;2022-11-15T05:53:15;100237.97;;;9.53;100.00
4745;BME280;2386;42.138;24.746;2022-11-15T05:55:41;100251.31;;;9.35;100.00
4745;BME280;2386;42.138;24.746;2022-11-15T05:58:07;100241.50;;;9.34;100.00
4745;BME280;2386;42.138;24.746;2022-11-15T06:00:33;100239.03;;;9.39;100.00
4745;BME280;2386;42.138;24.746;2022-11-15T06:02:58;100238.41;;;9.63;100.00
4745;BME280;2386;42.138;24.746;2022-11-15T06:05:24;100241.28;;;9.75;100.00
4745;BME280;2386;42.138;24.746;2022-11-15T06:07:49;100252.09;;;9.81;100.00
4745;BME280;2386;42.138;24.746;2022-11-15T06:10:15;100254.22;;;9.60;100.00
4745;BME280;2386;42.138;24.746;2022-11-15T06:12:40;100254.81;;;9.75;100.00
4745;BME280;2386;42.138;24.746;2022-11-15T06:15:06;100251.72;;;9.65;100.00
4745;BME280;2386;42.138;24.746;2022-11-15T06:17:31;100258.78;;;9.85;100.00
4745;BME280;2386;42.138;24.746;2022-11-15T06:19:57;100256.28;;;9.77;100.00
4745;BME280;2386;42.138;24.746;2022-11-15T06:22:22;100251.91;;;9.76;100.00
4745;BME280;2386;42.138;24.746;2022-11-15T06:24:47;100267.53;;;9.87;100.00
4745;BME280;2386;42.138;24.746;2022-11-15T06:27:14;100268.56;;;9.86;100.00
4745;BME280;2386;42.138;24.746;2022-11-15T06:29:39;100257.34;;;9.63;100.00
4745;BME280;2386;42.138;24.746;2022-11-15T06:32:04;100255.06;;;9.60;100.00
4745;BME280;2386;42.138;24.746;2022-11-15T06:34:30;100261.53;;;9.52;100.00
4745;BME280;2386;42.138;24.746;2022-11-15T06:36:55;100242.13;;;9.22;100.00
4745;BME280;2386;42.138;24.746;2022-11-15T06:39:21;100253.97;;;9.08;100.00
4745;BME280;2386;42.138;24.746;2022-11-15T06:41:46;100255.81;;;9.01;100.00
4745;BME280;2386;42.138;24.746;2022-11-15T06:44:11;100249.81;;;9.06;100.00
4745;BME280;2386;42.138;24.746;2022-11-15T06:46:37;100260.63;;;9.12;100.00
4745;BME280;2386;42.138;24.746;2022-11-15T06:49:02;100264.19;;;9.26;100.00
4745;BME280;2386;42.138;24.746;2022-11-15T06:51:28;100260.47;;;9.47;100.00
4745;BME280;2386;42.138;24.746;2022-11-15T06:53:54;100257.56;;;9.48;100.00
4745;BME280;2386;42.138;24.746;2022-11-15T06:56:19;100248.19;;;9.58;100.00
4745;BME280;2386;42.138;24.746;2022-11-15T06:58:44;100251.72;;;9.58;100.00
4745;BME280;2386;42.138;24.746;2022-11-15T07:01:11;100260.22;;;9.68;100.00
4745;BME280;2386;42.138;24.746;2022-11-15T07:03:39;100255.84;;;9.80;100.00
4745;BME280;2386;42.138;24.746;2022-11-15T07:06:05;100252.94;;;9.82;100.00
4745;BME280;2386;42.138;24.746;2022-11-15T07:08:31;100256.69;;;9.74;100.00
4745;BME280;2386;42.138;24.746;2022-11-15T07:11:02;100243.97;;;9.95;100.00
4745;BME280;2386;42.138;24.746;2022-11-15T07:13:29;100235.56;;;10.16;99.89
4745;BME280;2386;42.138;24.746;2022-11-15T07:15:58;100240.19;;;10.09;99.62
4745;BME280;2386;42.138;24.746;2022-11-15T07:18:26;100235.78;;;10.14;100.00
4745;BME280;2386;42.138;24.746;2022-11-15T07:20:52;100237.84;;;10.19;99.72
4745;BME280;2386;42.138;24.746;2022-11-15T07:23:18;100225.78;;;10.22;100.00
4745;BME280;2386;42.138;24.746;2022-11-15T07:25:46;100221.19;;;10.22;99.54
4745;BME280;2386;42.138;24.746;2022-11-15T07:28:11;100226.16;;;10.38;97.55
4745;BME280;2386;42.138;24.746;2022-11-15T07:30:37;100237.97;;;10.50;96.03
4745;BME280;2386;42.138;24.746;2022-11-15T07:33:02;100228.34;;;10.54;98.01
4745;BME280;2386;42.138;24.746;2022-11-15T07:35:28;100235.81;;;10.66;99.61
4745;BME280;2386;42.138;24.746;2022-11-15T07:37:55;100237.22;;;10.75;98.46
4745;BME280;2386;42.138;24.746;2022-11-15T07:40:21;100226.78;;;10.78;98.04
4745;BME280;2386;42.138;24.746;2022-11-15T07:42:46;100233.56;;;10.94;97.68
4745;BME280;2386;42.138;24.746;2022-11-15T07:45:18;100228.28;;;11.06;95.80
4745;BME280;2386;42.138;24.746;2022-11-15T07:47:49;100233.38;;;11.20;95.16
4745;BME280;2386;42.138;24.746;2022-11-15T07:50:16;100234.72;;;11.11;92.68
4745;BME280;2386;42.138;24.746;2022-11-15T07:52:41;100227.41;;;11.12;92.50
4745;BME280;2386;42.138;24.746;2022-11-15T07:55:07;100234.03;;;11.16;92.16
4745;BME280;2386;42.138;24.746;2022-11-15T07:57:32;100223.06;;;11.29;93.22
4745;BME280;2386;42.138;24.746;2022-11-15T07:59:58;100220.69;;;11.39;94.37
4745;BME280;2386;42.138;24.746;2022-11-15T08:02:23;100232.31;;;11.22;92.33
4745;BME280;2386;42.138;24.746;2022-11-15T08:04:48;100233.66;;;11.12;92.55
4745;BME280;2386;42.138;24.746;2022-11-15T08:07:14;100222.28;;;10.97;91.89
4745;BME280;2386;42.138;24.746;2022-11-15T08:09:39;100222.41;;;11.09;91.76
4745;BME280;2386;42.138;24.746;2022-11-15T08:12:05;100222.72;;;11.19;91.02
4745;BME280;2386;42.138;24.746;2022-11-15T08:14:31;100218.13;;;11.19;92.06
4745;BME280;2386;42.138;24.746;2022-11-15T08:16:56;100208.19;;;11.13;94.53
4745;BME280;2386;42.138;24.746;2022-11-15T08:19:22;100220.13;;;11.31;94.18
4745;BME280;2386;42.138;24.746;2022-11-15T08:21:47;100199.84;;;11.33;94.21
4745;BME280;2386;42.138;24.746;2022-11-15T08:24:13;100216.53;;;11.37;93.40
4745;BME280;2386;42.138;24.746;2022-11-15T08:26:39;100208.66;;;11.53;92.04
4745;BME280;2386;42.138;24.746;2022-11-15T08:29:05;100202.97;;;11.62;91.23
4745;BME280;2386;42.138;24.746;2022-11-15T08:31:32;100211.06;;;11.68;91.00
4745;BME280;2386;42.138;24.746;2022-11-15T08:33:59;100208.25;;;11.81;90.22
4745;BME280;2386;42.138;24.746;2022-11-15T08:36:25;100210.97;;;11.81;89.12
4745;BME280;2386;42.138;24.746;2022-11-15T08:38:50;100203.41;;;11.83;88.82
4745;BME280;2386;42.138;24.746;2022-11-15T08:41:42;100200.38;;;11.92;90.49
4745;BME280;2386;42.138;24.746;2022-11-15T08:44:07;100206.34;;;11.82;88.39
4745;BME280;2386;42.138;24.746;2022-11-15T08:46:33;100195.53;;;11.94;89.92
4745;BME280;2386;42.138;24.746;2022-11-15T08:48:58;100194.78;;;12.05;90.91
4745;BME280;2386;42.138;24.746;2022-11-15T08:51:24;100200.16;;;12.11;90.04
4745;BME280;2386;42.138;24.746;2022-11-15T08:53:50;100190.41;;;12.22;91.41
4745;BME280;2386;42.138;24.746;2022-11-15T08:56:16;100187.16;;;12.13;90.58
4745;BME280;2386;42.138;24.746;2022-11-15T08:58:41;100178.69;;;12.22;91.33
4745;BME280;2386;42.138;24.746;2022-11-15T09:01:15;100185.19;;;12.39;91.76
4745;BME280;2386;42.138;24.746;2022-11-15T09:03:41;100174.69;;;12.42;90.09
4745;BME280;2386;42.138;24.746;2022-11-15T09:06:06;100163.34;;;12.45;89.47
4745;BME280;2386;42.138;24.746;2022-11-15T09:08:32;100165.06;;;12.58;88.41
4745;BME280;2386;42.138;24.746;2022-11-15T09:10:57;100158.88;;;12.63;90.19
4745;BME280;2386;42.138;24.746;2022-11-15T09:13:22;100161.88;;;12.73;90.51
4745;BME280;2386;42.138;24.746;2022-11-15T09:15:48;100154.91;;;12.77;91.76
4745;BME280;2386;42.138;24.746;2022-11-15T09:18:13;100146.78;;;12.89;91.82
4745;BME280;2386;42.138;24.746;2022-11-15T09:20:39;100138.47;;;12.83;90.73
4745;BME280;2386;42.138;24.746;2022-11-15T09:23:05;100138.25;;;12.85;92.26
4745;BME280;2386;42.138;24.746;2022-11-15T09:25:31;100135.97;;;12.70;92.51
4745;BME280;2386;42.138;24.746;2022-11-15T09:27:57;100127.31;;;12.73;93.25
4745;BME280;2386;42.138;24.746;2022-11-15T09:30:24;100125.09;;;12.82;93.31
4745;BME280;2386;42.138;24.746;2022-11-15T09:32:49;100107.00;;;12.88;94.80
4745;BME280;2386;42.138;24.746;2022-11-15T09:35:15;100118.16;;;12.98;94.85
4745;BME280;2386;42.138;24.746;2022-11-15T09:37:40;100114.72;;;13.02;92.32
4745;BME280;2386;42.138;24.746;2022-11-15T09:40:10;100109.06;;;13.04;91.24
4745;BME280;2386;42.138;24.746;2022-11-15T09:51:11;100106.03;;;13.24;91.74
4745;BME280;2386;42.138;24.746;2022-11-15T09:56:20;100101.41;;;13.24;91.19
4745;BME280;2386;42.138;24.746;2022-11-15T10:04:25;100092.88;;;13.21;91.36
4745;BME280;2386;42.138;24.746;2022-11-15T10:10:30;100061.91;;;13.50;92.06
4745;BME280;2386;42.138;24.746;2022-11-15T10:13:24;100063.09;;;13.54;89.84
4745;BME280;2386;42.138;24.746;2022-11-15T10:15:51;100053.03;;;13.55;88.33
4745;BME280;2386;42.138;24.746;2022-11-15T10:18:55;100060.69;;;13.81;87.74
4745;BME280;2386;42.138;24.746;2022-11-15T10:21:38;100049.75;;;13.93;86.83
4745;BME280;2386;42.138;24.746;2022-11-15T10:24:15;100049.47;;;14.06;85.24
4745;BME280;2386;42.138;24.746;2022-11-15T10:26:47;100053.53;;;14.20;84.08
4745;BME280;2386;42.138;24.746;2022-11-15T10:29:20;100053.47;;;14.32;82.83
4745;BME280;2386;42.138;24.746;2022-11-15T10:31:46;100041.81;;;14.36;82.12
4745;BME280;2386;42.138;24.746;2022-11-15T10:34:17;100033.59;;;14.48;82.20
4745;BME280;2386;42.138;24.746;2022-11-15T10:36:59;100041.16;;;14.58;83.37
4745;BME280;2386;42.138;24.746;2022-11-15T10:39:25;100020.81;;;14.65;82.33
4745;BME280;2386;42.138;24.746;2022-11-15T10:41:52;100031.41;;;14.78;81.15
4745;BME280;2386;42.138;24.746;2022-11-15T10:49:24;100020.41;;;14.73;78.06
4745;BME280;2386;42.138;24.746;2022-11-15T10:51:58;100011.97;;;14.75;77.98
4745;BME280;2386;42.138;24.746;2022-11-15T10:54:35;100006.31;;;14.65;78.57
4745;BME280;2386;42.138;24.746;2022-11-15T10:57:07;100005.25;;;14.66;77.89
4745;BME280;2386;42.138;24.746;2022-11-15T10:59:35;100005.25;;;14.66;79.38
4745;BME280;2386;42.138;24.746;2022-11-15T11:02:02;100007.06;;;14.60;81.25
4745;BME280;2386;42.138;24.746;2022-11-15T11:04:27;99995.97;;;14.50;79.06
4745;BME280;2386;42.138;24.746;2022-11-15T11:06:58;99984.31;;;14.55;77.68
4745;BME280;2386;42.138;24.746;2022-11-15T11:09:38;99986.97;;;14.50;78.29
4745;BME280;2386;42.138;24.746;2022-11-15T11:12:06;99984.22;;;14.50;78.74
4745;BME280;2386;42.138;24.746;2022-11-15T11:14:35;99981.00;;;14.53;79.02
4745;BME280;2386;42.138;24.746;2022-11-15T11:17:27;99979.59;;;14.50;77.86
4745;BME280;2386;42.138;24.746;2022-11-15T11:20:05;99970.84;;;14.48;77.91
4745;BME280;2386;42.138;24.746;2022-11-15T11:25:16;99962.31;;;14.44;79.79
4745;BME280;2386;42.138;24.746;2022-11-15T11:33:37;99955.63;;;14.24;79.03
4745;BME280;2386;42.138;24.746;2022-11-15T11:39:16;99938.03;;;14.31;79.49
4745;BME280;2386;42.138;24.746;2022-11-15T11:41:50;99942.50;;;14.37;80.12
4745;BME280;2386;42.138;24.746;2022-11-15T11:44:33;99932.78;;;14.41;79.08
4745;BME280;2386;42.138;24.746;2022-11-15T11:47:19;99912.50;;;14.37;78.22
4745;BME280;2386;42.138;24.746;2022-11-15T11:50:19;99929.06;;;14.48;76.74
4745;BME280;2386;42.138;24.746;2022-11-15T11:55:56;99913.06;;;14.39;77.64
4745;BME280;2386;42.138;24.746;2022-11-15T11:58:38;99907.13;;;14.42;77.94
4745;BME280;2386;42.138;24.746;2022-11-15T12:01:26;99915.72;;;14.34;79.08
4745;BME280;2386;42.138;24.746;2022-11-15T12:03:58;99909.13;;;14.47;80.17
4745;BME280;2386;42.138;24.746;2022-11-15T12:09:29;99896.97;;;14.55;79.09
4745;BME280;2386;42.138;24.746;2022-11-15T12:14:55;99893.06;;;14.67;77.93
4745;BME280;2386;42.138;24.746;2022-11-15T12:17:24;99879.41;;;14.67;78.05
4745;BME280;2386;42.138;24.746;2022-11-15T12:19:57;99886.91;;;14.77;79.78
4745;BME280;2386;42.138;24.746;2022-11-15T12:22:47;99882.59;;;14.81;80.26
4745;BME280;2386;42.138;24.746;2022-11-15T12:33:47;99870.63;;;14.87;78.95
4745;BME280;2386;42.138;24.746;2022-11-15T12:39:00;99863.53;;;14.86;78.61
4745;BME280;2386;42.138;24.746;2022-11-15T12:41:30;99865.72;;;14.84;77.65
4745;BME280;2386;42.138;24.746;2022-11-15T12:43:57;99856.13;;;14.82;77.26
4745;BME280;2386;42.138;24.746;2022-11-15T12:48:59;99859.72;;;14.87;78.87
4745;BME280;2386;42.138;24.746;2022-11-15T13:00:48;99837.03;;;14.87;80.65
4745;BME280;2386;42.138;24.746;2022-11-15T13:02:43;99838.69;;;14.88;77.46
4745;BME280;2386;42.138;24.746;2022-11-15T13:08:07;99837.50;;;14.78;80.57
4745;BME280;2386;42.138;24.746;2022-11-15T13:10:34;99834.53;;;14.80;81.33
4745;BME280;2386;42.138;24.746;2022-11-15T13:13:02;99828.81;;;14.82;80.80
4745;BME280;2386;42.138;24.746;2022-11-15T13:18:37;99823.13;;;14.88;79.43
4745;BME280;2386;42.138;24.746;2022-11-15T13:21:05;99825.81;;;14.83;78.93
4745;BME280;2386;42.138;24.746;2022-11-15T13:23:54;99819.31;;;14.89;79.10
4745;BME280;2386;42.138;24.746;2022-11-15T13:26:20;99824.78;;;14.89;79.36
4745;BME280;2386;42.138;24.746;2022-11-15T13:28:48;99802.31;;;14.82;79.65
4745;BME280;2386;42.138;24.746;2022-11-15T13:31:27;99807.94;;;14.97;79.34
4745;BME280;2386;42.138;24.746;2022-11-15T13:33:58;99815.72;;;14.84;78.41
4745;BME280;2386;42.138;24.746;2022-11-15T13:36:30;99808.28;;;14.79;79.45
4745;BME280;2386;42.138;24.746;2022-11-15T13:39:03;99803.34;;;14.76;80.44
4745;BME280;2386;42.138;24.746;2022-11-15T13:41:32;99808.16;;;14.69;80.97
4745;BME280;2386;42.138;24.746;2022-11-15T13:43:59;99814.19;;;14.71;81.65
4745;BME280;2386;42.138;24.746;2022-11-15T13:46:28;99816.94;;;14.71;82.82
4745;BME280;2386;42.138;24.746;2022-11-15T13:48:59;99811.41;;;14.66;82.13
4745;BME280;2386;42.138;24.746;2022-11-15T13:51:38;99806.75;;;14.66;81.18
4745;BME280;2386;42.138;24.746;2022-11-15T13:54:09;99807.09;;;14.70;82.15
4745;BME280;2386;42.138;24.746;2022-11-15T13:56:45;99796.66;;;14.67;82.54
4745;BME280;2386;42.138;24.746;2022-11-15T14:01:44;99801.81;;;14.85;82.15
4745;BME280;2386;42.138;24.746;2022-11-15T14:04:13;99797.44;;;14.84;81.51
4745;BME280;2386;42.138;24.746;2022-11-15T14:06:49;99805.09;;;14.87;81.56
4745;BME280;2386;42.138;24.746;2022-11-15T14:11:56;99801.63;;;14.70;82.44
4745;BME280;2386;42.138;24.746;2022-11-15T14:14:24;99792.53;;;14.64;82.97
4745;BME280;2386;42.138;24.746;2022-11-15T14:16:56;99796.28;;;14.58;84.38
4745;BME280;2386;42.138;24.746;2022-11-15T14:22:14;99795.97;;;14.55;83.41
4745;BME280;2386;42.138;24.746;2022-11-15T14:24:42;99786.28;;;14.47;81.78
4745;BME280;2386;42.138;24.746;2022-11-15T14:27:18;99789.16;;;14.40;82.81
4745;BME280;2386;42.138;24.746;2022-11-15T14:29:43;99794.47;;;14.30;83.61
4745;BME280;2386;42.138;24.746;2022-11-15T14:32:18;99786.22;;;14.25;83.53
4745;BME280;2386;42.138;24.746;2022-11-15T14:34:45;99787.22;;;14.19;84.84
4745;BME280;2386;42.138;24.746;2022-11-15T14:37:25;99792.34;;;14.15;85.73
4745;BME280;2386;42.138;24.746;2022-11-15T14:39:51;99783.22;;;14.05;86.96
4745;BME280;2386;42.138;24.746;2022-11-15T14:42:18;99783.72;;;14.02;87.22
4745;BME280;2386;42.138;24.746;2022-11-15T14:44:44;99780.00;;;13.91;88.86
4745;BME280;2386;42.138;24.746;2022-11-15T14:47:09;99776.13;;;13.87;89.58
4745;BME280;2386;42.138;24.746;2022-11-15T14:49:35;99774.88;;;13.78;91.01
4745;BME280;2386;42.138;24.746;2022-11-15T14:52:00;99783.22;;;13.71;92.56
4745;BME280;2386;42.138;24.746;2022-11-15T14:54:26;99763.88;;;13.56;93.35
4745;BME280;2386;42.138;24.746;2022-11-15T14:56:51;99761.50;;;13.60;92.94
4745;BME280;2386;42.138;24.746;2022-11-15T14:59:16;99766.59;;;13.56;92.53
4745;BME280;2386;42.138;24.746;2022-11-15T15:01:42;99770.25;;;13.62;92.85
4745;BME280;2386;42.138;24.746;2022-11-15T15:04:10;99768.00;;;13.42;95.51
4745;BME280;2386;42.138;24.746;2022-11-15T15:06:35;99762.47;;;13.37;96.51
4745;BME280;2386;42.138;24.746;2022-11-15T15:09:01;99767.84;;;13.32;98.35
4745;BME280;2386;42.138;24.746;2022-11-15T15:11:29;99769.97;;;13.30;98.76
4745;BME280;2386;42.138;24.746;2022-11-15T15:13:55;99772.78;;;13.35;98.19